createdAt,value
2022-09-28T00:03:44.177Z,9.08
2022-09-28T00:08:45.402Z,8.75
2022-09-28T00:13:46.627Z,8.82
2022-09-28T00:18:48.156Z,9.02
2022-09-28T00:24:08.039Z,8.79
2022-09-28T00:29:09.234Z,9.03
2022-09-28T00:34:10.514Z,8.71
2022-09-28T00:39:11.730Z,8.80
2022-09-28T00:44:12.933Z,8.72
2022-09-28T00:49:14.287Z,8.64
2022-09-28T00:54:15.618Z,8.76
2022-09-28T00:59:16.916Z,8.84
2022-09-28T01:04:18.178Z,8.83
2022-09-28T01:09:19.439Z,9.16
2022-09-28T01:14:20.740Z,9.15
2022-09-28T01:19:21.937Z,9.19
2022-09-28T01:24:23.143Z,9.32
2022-09-28T01:29:24.334Z,9.30
2022-09-28T01:34:25.655Z,9.49
2022-09-28T01:39:26.870Z,9.47
2022-09-28T01:44:28.581Z,9.37
2022-09-28T01:49:31.224Z,9.35
2022-09-28T01:54:32.424Z,9.26
2022-09-28T01:59:33.738Z,8.93
2022-09-28T02:04:36.070Z,9.33
2022-09-28T02:09:37.352Z,9.57
2022-09-28T02:14:38.571Z,9.61
2022-09-28T02:19:39.828Z,9.76
2022-09-28T02:24:41.038Z,9.76
2022-09-28T02:29:42.232Z,9.82
2022-09-28T02:34:43.487Z,9.85
2022-09-28T02:39:44.719Z,9.79
2022-09-28T02:44:45.922Z,9.77
2022-09-28T02:49:47.139Z,9.89
2022-09-28T02:54:48.399Z,9.70
2022-09-28T02:59:50.469Z,9.67
2022-09-28T03:04:51.730Z,9.46
2022-09-28T03:09:52.974Z,9.29
2022-09-28T03:14:54.208Z,9.38
2022-09-28T03:19:55.423Z,9.27
2022-09-28T03:24:56.621Z,9.30
2022-09-28T03:29:57.842Z,9.18
2022-09-28T03:34:59.057Z,9.38
2022-09-28T03:40:00.271Z,9.45
2022-09-28T03:45:01.496Z,9.27
2022-09-28T03:50:02.697Z,9.42
2022-09-28T03:55:03.902Z,9.54
2022-09-28T04:00:05.129Z,9.64
2022-09-28T04:05:06.333Z,9.64
2022-09-28T04:10:07.542Z,9.77
2022-09-28T04:15:08.791Z,9.80
2022-09-28T04:20:10.180Z,9.94
2022-09-28T04:25:11.527Z,9.71
2022-09-28T04:30:12.803Z,9.59
2022-09-28T04:35:14.101Z,9.94
2022-09-28T04:40:15.451Z,10.09
2022-09-28T04:45:17.093Z,10.18
2022-09-28T04:50:18.311Z,10.12
2022-09-28T04:55:20.567Z,10.00
2022-09-28T05:00:21.784Z,10.04
2022-09-28T05:05:23.028Z,10.31
2022-09-28T05:10:24.240Z,10.26
2022-09-28T05:15:25.605Z,10.40
2022-09-28T05:20:26.823Z,10.44
2022-09-28T05:25:28.036Z,10.42
2022-09-28T05:30:29.269Z,10.45
2022-09-28T05:35:30.534Z,10.45
2022-09-28T05:40:31.817Z,10.37
2022-09-28T05:45:33.129Z,10.43
2022-09-28T05:50:34.378Z,10.37
2022-09-28T05:55:35.817Z,10.36
2022-09-28T06:00:37.407Z,10.25
2022-09-28T06:05:39.365Z,10.35
2022-09-28T06:10:40.982Z,10.40
2022-09-28T06:15:42.223Z,10.40
2022-09-28T06:20:43.466Z,10.65
2022-09-28T06:25:44.730Z,10.45
2022-09-28T06:30:48.242Z,10.49
2022-09-28T06:35:49.549Z,10.34
2022-09-28T06:40:50.853Z,10.38
2022-09-28T06:45:52.206Z,10.27
2022-09-28T06:50:53.778Z,10.25
2022-09-28T06:55:54.999Z,10.23
2022-09-28T07:00:59.287Z,9.90
2022-09-28T07:06:01.374Z,9.92
2022-09-28T07:11:02.561Z,9.83
2022-09-28T07:16:03.761Z,9.81
2022-09-28T07:21:08.060Z,9.91
2022-09-28T07:26:10.762Z,10.14
2022-09-28T07:31:12.207Z,10.13
2022-09-28T07:36:17.805Z,9.86
2022-09-28T07:41:32.044Z,10.09
2022-09-28T07:46:33.369Z,10.10
2022-09-28T07:51:34.571Z,10.25
2022-09-28T07:56:35.782Z,10.22
2022-09-28T08:01:37.034Z,10.44
2022-09-28T08:06:40.459Z,10.53
2022-09-28T08:11:43.824Z,10.53
2022-09-28T08:16:47.522Z,10.56
2022-09-28T08:21:50.890Z,10.62
2022-09-28T08:26:53.456Z,10.91
2022-09-28T08:31:58.270Z,11.01
2022-09-28T08:37:01.998Z,11.91
2022-09-28T08:42:03.214Z,11.69
2022-09-28T08:47:04.430Z,11.45
2022-09-28T08:52:05.659Z,11.34
2022-09-28T08:57:06.902Z,11.47
2022-09-28T09:02:08.127Z,11.60
2022-09-28T09:07:09.423Z,11.53
2022-09-28T09:12:10.852Z,11.52
2022-09-28T09:17:12.137Z,11.70
2022-09-28T09:22:13.367Z,11.85
2022-09-28T09:27:14.633Z,11.72
2022-09-28T09:32:15.847Z,11.74
2022-09-28T09:37:17.882Z,11.43
2022-09-28T09:42:19.126Z,11.58
2022-09-28T09:47:20.395Z,11.73
2022-09-28T09:52:21.803Z,11.91
2022-09-28T09:57:23.201Z,12.11
2022-09-28T10:02:24.492Z,12.13
2022-09-28T10:07:25.855Z,11.95
2022-09-28T10:12:27.158Z,11.82
2022-09-28T10:17:28.399Z,11.45
2022-09-28T10:22:30.738Z,12.00
2022-09-28T10:27:32.001Z,12.12
2022-09-28T10:32:33.250Z,12.31
2022-09-28T10:37:34.464Z,12.29
2022-09-28T10:42:36.404Z,12.47
2022-09-28T10:47:37.619Z,12.15
2022-09-28T10:52:38.922Z,12.56
2022-09-28T10:57:40.769Z,12.38
2022-09-28T11:02:42.003Z,12.66
2022-09-28T11:07:43.214Z,12.83
2022-09-28T11:12:45.443Z,12.71
2022-09-28T11:17:46.648Z,12.78
2022-09-28T11:22:51.106Z,12.99
2022-09-28T11:27:53.671Z,12.88
2022-09-28T11:32:54.984Z,12.87
2022-09-28T11:37:56.199Z,13.26
2022-09-28T11:42:57.418Z,13.34
2022-09-28T11:47:59.187Z,13.61
2022-09-28T11:53:00.904Z,13.45
2022-09-28T11:58:02.473Z,13.48
2022-09-28T12:03:03.811Z,13.35
2022-09-28T12:08:05.094Z,13.28
2022-09-28T12:13:09.653Z,13.33
2022-09-28T12:18:10.925Z,13.22
2022-09-28T12:23:12.178Z,13.23
2022-09-28T12:28:13.375Z,13.30
2022-09-28T12:33:15.598Z,13.49
2022-09-28T12:38:16.846Z,13.86
2022-09-28T12:43:19.273Z,13.87
2022-09-28T12:48:20.903Z,13.52
2022-09-28T12:53:23.468Z,12.84
2022-09-28T12:58:24.656Z,13.02
2022-09-28T13:03:29.051Z,12.65
2022-09-28T13:08:30.299Z,13.02
2022-09-28T13:13:31.552Z,12.99
2022-09-28T13:18:33.777Z,13.39
2022-09-28T13:23:35.014Z,13.00
2022-09-28T13:28:37.481Z,12.79
2022-09-28T13:33:39.202Z,13.42
2022-09-28T13:38:40.431Z,13.24
2022-09-28T13:43:41.636Z,13.29
2022-09-28T13:48:44.333Z,13.49
2022-09-28T13:53:46.737Z,13.42
2022-09-28T13:58:47.977Z,13.65
2022-09-28T14:03:49.247Z,13.60
2022-09-28T14:08:50.473Z,13.83
2022-09-28T14:13:52.137Z,13.91
2022-09-28T14:18:53.374Z,13.88
2022-09-28T14:23:58.985Z,13.85
2022-09-28T14:29:01.190Z,14.48
2022-09-28T14:34:02.629Z,15.07
2022-09-28T14:39:22.558Z,14.97
2022-09-28T14:44:23.754Z,14.95
2022-09-28T14:49:25.006Z,14.84
2022-09-28T14:54:26.500Z,14.81
2022-09-28T14:59:27.746Z,15.02
2022-09-28T15:04:33.207Z,14.74
2022-09-28T15:09:34.502Z,14.33
2022-09-28T15:14:36.039Z,13.88
2022-09-28T15:19:37.230Z,14.20
2022-09-28T15:24:40.150Z,13.82
2022-09-28T15:29:41.347Z,13.61
2022-09-28T15:34:51.711Z,13.26
2022-09-28T15:39:52.939Z,13.36
2022-09-28T15:44:54.129Z,13.52
2022-09-28T15:49:58.457Z,13.31
2022-09-28T15:55:00.918Z,13.48
2022-09-28T16:00:02.291Z,13.62
2022-09-28T16:05:05.180Z,13.66
2022-09-28T16:10:06.451Z,13.62
2022-09-28T16:15:07.702Z,13.41
2022-09-28T16:20:10.374Z,13.70
2022-09-28T16:25:12.098Z,13.68
2022-09-28T16:30:13.362Z,13.63
2022-09-28T16:35:14.994Z,13.61
2022-09-28T16:40:16.200Z,13.39
2022-09-28T16:45:17.404Z,13.31
2022-09-28T16:50:18.624Z,13.05
2022-09-28T16:55:39.331Z,12.86
2022-09-28T17:00:43.484Z,12.86
2022-09-28T17:05:44.726Z,13.07
2022-09-28T17:11:12.451Z,12.92
2022-09-28T17:16:08.898Z,13.02
2022-09-28T17:21:10.706Z,12.88
2022-09-28T17:26:11.906Z,12.76
2022-09-28T17:31:13.171Z,12.72
2022-09-28T17:36:14.480Z,12.38
2022-09-28T17:41:20.033Z,12.45
2022-09-28T17:46:21.822Z,12.54
2022-09-28T17:51:23.731Z,12.57
2022-09-28T17:56:27.565Z,13.89
2022-09-28T18:01:34.472Z,13.09
2022-09-28T18:06:37.301Z,12.70
2022-09-28T18:11:40.198Z,12.63
2022-09-28T18:16:41.397Z,12.53
2022-09-28T18:21:42.723Z,12.61
2022-09-28T18:26:44.124Z,12.43
2022-09-28T18:31:45.424Z,12.23
2022-09-28T18:36:46.705Z,12.21
2022-09-28T18:41:47.974Z,12.19
2022-09-28T18:46:49.534Z,12.15
2022-09-28T18:51:50.811Z,11.83
2022-09-28T18:56:52.002Z,11.75
2022-09-28T19:01:53.273Z,11.88
2022-09-28T19:06:54.672Z,11.94
2022-09-28T19:11:56.107Z,11.92
2022-09-28T19:16:57.426Z,11.71
2022-09-28T19:21:59.030Z,11.48
2022-09-28T19:27:00.294Z,11.38
2022-09-28T19:32:01.497Z,11.36
2022-09-28T19:37:03.886Z,11.37
2022-09-28T19:42:05.189Z,11.27
2022-09-28T19:47:10.016Z,11.55
2022-09-28T19:52:16.564Z,11.54
2022-09-28T19:57:19.582Z,11.46
2022-09-28T20:02:20.888Z,11.53
2022-09-28T20:07:22.183Z,11.43
2022-09-28T20:12:23.500Z,11.11
2022-09-28T20:17:24.750Z,11.00
2022-09-28T20:22:25.973Z,10.28
2022-09-28T20:27:27.397Z,10.64
2022-09-28T20:32:28.622Z,11.02
2022-09-28T20:37:30.841Z,11.18
2022-09-28T20:42:32.627Z,11.34
2022-09-28T20:47:34.548Z,11.25
2022-09-28T20:52:35.763Z,11.13
2022-09-28T20:57:36.984Z,11.06
2022-09-28T21:02:38.490Z,10.95
2022-09-28T21:07:39.783Z,10.80
2022-09-28T21:12:45.097Z,10.82
2022-09-28T21:17:46.314Z,11.03
2022-09-28T21:22:48.090Z,10.98
2022-09-28T21:27:50.465Z,10.88
2022-09-28T21:32:51.722Z,10.65
2022-09-28T21:37:53.660Z,10.59
2022-09-28T21:42:54.860Z,10.76
2022-09-28T21:47:56.118Z,10.92
2022-09-28T21:52:57.325Z,10.97
2022-09-28T21:57:58.618Z,10.76
2022-09-28T22:02:59.952Z,10.81
2022-09-28T22:08:01.198Z,10.85
2022-09-28T22:13:02.467Z,10.96
2022-09-28T22:18:03.836Z,10.97
2022-09-28T22:23:05.072Z,10.96
2022-09-28T22:28:06.275Z,11.10
2022-09-28T22:33:07.519Z,11.05
2022-09-28T22:38:08.779Z,11.06
2022-09-28T22:43:10.051Z,10.87
2022-09-28T22:48:11.292Z,10.90
2022-09-28T22:53:14.144Z,11.00
2022-09-28T22:58:15.376Z,11.05
2022-09-28T23:03:16.663Z,11.05
2022-09-28T23:08:17.931Z,11.07
2022-09-28T23:13:19.185Z,11.12
2022-09-28T23:18:20.475Z,11.05
2022-09-28T23:23:21.735Z,10.94
2022-09-28T23:28:22.942Z,10.72
2022-09-28T23:33:24.157Z,10.76
2022-09-28T23:38:26.328Z,10.87
2022-09-28T23:43:27.515Z,10.86
2022-09-28T23:48:28.722Z,10.93
2022-09-28T23:53:30.031Z,10.84
2022-09-28T23:58:31.230Z,10.68
